createdAt,value
2017-11-30T00:00:58.811Z,99955.61
2017-11-30T00:03:30.177Z,99953.53
2017-11-30T00:05:58.466Z,99956.16
2017-11-30T00:08:30.182Z,99953.68
2017-11-30T00:10:58.489Z,99953.16
2017-11-30T00:13:30.188Z,99953.81
2017-11-30T00:15:58.508Z,99953.52
2017-11-30T00:18:30.229Z,99955.83
2017-11-30T00:20:58.523Z,99953.38
2017-11-30T00:23:30.232Z,99954.52
2017-11-30T00:25:58.514Z,99955.77
2017-11-30T00:28:30.040Z,99951.16
2017-11-30T00:30:58.581Z,99955.15
2017-11-30T00:33:29.501Z,99950.44
2017-11-30T00:35:57.742Z,99953.64
2017-11-30T00:38:32.750Z,99952.17
2017-11-30T00:41:01.502Z,99953.11
2017-11-30T00:43:32.504Z,99954.36
2017-11-30T00:46:00.774Z,99955.18
2017-11-30T00:48:29.620Z,99936.89
2017-11-30T00:50:57.895Z,99940.11
2017-11-30T00:53:29.362Z,99935.31
2017-11-30T00:55:57.650Z,99937.08
2017-11-30T00:58:29.124Z,99939.11
2017-11-30T01:00:57.404Z,99936.03
2017-11-30T01:03:28.839Z,99936.20
2017-11-30T01:05:57.187Z,99936.53
2017-11-30T01:08:29.046Z,99936.14
2017-11-30T01:10:57.351Z,99936.10
2017-11-30T01:13:31.783Z,99930.77
2017-11-30T01:16:00.106Z,99938.45
2017-11-30T01:18:30.025Z,99940.69
2017-11-30T01:20:58.301Z,99935.64
2017-11-30T01:23:30.042Z,99933.00
2017-11-30T01:25:58.352Z,99930.58
2017-11-30T01:28:29.955Z,99929.53
2017-11-30T01:30:58.783Z,99934.16
2017-11-30T01:33:30.047Z,99928.41
2017-11-30T01:35:58.323Z,99924.70
2017-11-30T01:38:29.498Z,99927.95
2017-11-30T01:40:57.831Z,99927.84
2017-11-30T01:43:32.927Z,99929.09
2017-11-30T01:46:01.207Z,99929.30
2017-11-30T01:48:29.496Z,99929.30
2017-11-30T01:50:57.766Z,99929.53
2017-11-30T01:53:32.951Z,99922.19
2017-11-30T01:56:01.254Z,99920.39
2017-11-30T01:58:29.602Z,99921.14
2017-11-30T02:00:58.206Z,99923.70
2017-11-30T02:03:30.309Z,99926.25
2017-11-30T02:05:58.854Z,99920.62
2017-11-30T02:08:30.465Z,99926.41
2017-11-30T02:10:59.211Z,99921.34
2017-11-30T02:13:31.275Z,99684.11
2017-11-30T02:15:59.585Z,99915.15
2017-11-30T02:18:29.746Z,99918.48
2017-11-30T02:20:58.055Z,99916.98
2017-11-30T02:23:29.655Z,99918.82
2017-11-30T02:25:57.956Z,99920.23
2017-11-30T02:28:30.055Z,99919.09
2017-11-30T02:30:58.771Z,99919.42
2017-11-30T02:33:30.979Z,99922.23
2017-11-30T02:35:59.466Z,99923.78
2017-11-30T02:38:29.313Z,99921.41
2017-11-30T02:40:58.387Z,99920.39
2017-11-30T02:43:30.565Z,99915.11
2017-11-30T02:45:59.469Z,99915.30
2017-11-30T02:48:29.616Z,99917.09
2017-11-30T02:50:58.556Z,99909.13
2017-11-30T02:53:29.379Z,99906.52
2017-11-30T02:55:57.783Z,99903.72
2017-11-30T02:58:32.979Z,99903.47
2017-11-30T03:01:01.243Z,99906.94
2017-11-30T03:03:29.545Z,99912.15
2017-11-30T03:05:57.987Z,99907.86
2017-11-30T03:08:31.935Z,99905.35
2017-11-30T03:11:01.106Z,99906.21
2017-11-30T03:13:29.478Z,99899.16
2017-11-30T03:15:57.788Z,99901.77
2017-11-30T03:18:29.226Z,99902.50
2017-11-30T03:20:57.514Z,99894.95
2017-11-30T03:23:29.891Z,99898.91
2017-11-30T03:25:58.170Z,99890.12
2017-11-30T03:28:29.650Z,99898.83
2017-11-30T03:30:58.023Z,99892.99
2017-11-30T03:33:32.242Z,99885.90
2017-11-30T03:36:00.987Z,99882.38
2017-11-30T03:38:30.328Z,99883.29
2017-11-30T03:40:58.786Z,99885.19
2017-11-30T03:43:30.460Z,99889.23
2017-11-30T03:45:58.999Z,99887.55
2017-11-30T03:48:31.146Z,99888.67
2017-11-30T03:50:59.628Z,99892.16
2017-11-30T03:53:29.524Z,99885.56
2017-11-30T03:55:57.965Z,99881.81
2017-11-30T03:58:32.952Z,99882.35
2017-11-30T04:01:01.319Z,99881.70
2017-11-30T04:03:30.139Z,99881.95
2017-11-30T04:05:58.726Z,99876.16
2017-11-30T04:08:29.499Z,99872.57
2017-11-30T04:10:57.819Z,99880.44
2017-11-30T04:13:29.328Z,99873.30
2017-11-30T04:15:57.647Z,99869.36
2017-11-30T04:18:32.823Z,99871.76
2017-11-30T04:21:01.096Z,99874.47
2017-11-30T04:23:29.475Z,99868.69
2017-11-30T04:25:57.755Z,99865.64
2017-11-30T04:28:29.274Z,99868.34
2017-11-30T04:30:57.555Z,99868.34
2017-11-30T04:33:30.018Z,99863.18
2017-11-30T04:35:58.294Z,99858.83
2017-11-30T04:38:29.910Z,99858.05
2017-11-30T04:40:58.225Z,99857.69
2017-11-30T04:43:29.537Z,99856.26
2017-11-30T04:45:57.823Z,99857.59
2017-11-30T04:48:33.086Z,99860.28
2017-11-30T04:51:01.363Z,99859.66
2017-11-30T04:53:29.975Z,99862.88
2017-11-30T04:55:58.632Z,99854.11
2017-11-30T04:58:31.488Z,99856.85
2017-11-30T05:00:59.786Z,99857.56
2017-11-30T05:03:29.836Z,99859.20
2017-11-30T05:05:58.244Z,99853.47
2017-11-30T05:08:30.287Z,99849.76
2017-11-30T05:10:59.168Z,99850.63
2017-11-30T05:13:31.999Z,99849.26
2017-11-30T05:16:00.302Z,99854.37
2017-11-30T05:18:31.638Z,99845.64
2017-11-30T05:20:59.931Z,99844.08
2017-11-30T05:23:29.837Z,99841.38
2017-11-30T05:25:58.262Z,99840.27
2017-11-30T05:28:30.270Z,99848.47
2017-11-30T05:30:58.566Z,99850.47
2017-11-30T05:33:30.573Z,99847.58
2017-11-30T05:35:58.861Z,99850.89
2017-11-30T05:38:30.255Z,99852.45
2017-11-30T05:40:58.550Z,99846.72
2017-11-30T05:43:30.339Z,99839.41
2017-11-30T05:45:58.758Z,99848.78
2017-11-30T05:48:30.958Z,99844.95
2017-11-30T05:50:59.466Z,99849.50
2017-11-30T05:53:31.914Z,99847.21
2017-11-30T05:56:00.346Z,99849.94
2017-11-30T05:58:30.258Z,99849.57
2017-11-30T06:00:59.020Z,99849.09
2017-11-30T06:03:31.117Z,99848.72
2017-11-30T06:06:00.076Z,99842.77
2017-11-30T06:08:32.642Z,99846.36
2017-11-30T06:11:00.923Z,99849.80
2017-11-30T06:13:30.328Z,99849.84
2017-11-30T06:15:58.598Z,99854.53
2017-11-30T06:18:31.182Z,99841.46
2017-11-30T06:20:59.456Z,99846.72
2017-11-30T06:23:31.771Z,99843.59
2017-11-30T06:26:00.046Z,99840.66
2017-11-30T06:28:31.282Z,99846.36
2017-11-30T06:30:59.566Z,99846.63
2017-11-30T06:33:31.367Z,99849.66
2017-11-30T06:35:59.647Z,99837.86
2017-11-30T06:38:31.136Z,99842.63
2017-11-30T06:40:59.422Z,99830.87
2017-11-30T06:43:30.757Z,99831.26
2017-11-30T06:45:59.737Z,99829.78
2017-11-30T06:48:31.649Z,99827.86
2017-11-30T06:50:59.940Z,99829.56
2017-11-30T06:53:29.905Z,99822.26
2017-11-30T06:55:58.206Z,99828.41
2017-11-30T06:58:33.293Z,99827.81
2017-11-30T07:01:01.579Z,99831.67
2017-11-30T07:03:29.846Z,99828.87
2017-11-30T07:05:58.144Z,99827.13
2017-11-30T07:08:32.616Z,99828.05
2017-11-30T07:11:01.111Z,99841.28
2017-11-30T07:13:30.634Z,99844.98
2017-11-30T07:15:58.907Z,99841.38
2017-11-30T07:18:30.658Z,99845.20
2017-11-30T07:20:58.934Z,99845.15
2017-11-30T07:23:29.875Z,99848.19
2017-11-30T07:25:58.160Z,99840.54
2017-11-30T07:28:29.715Z,99849.00
2017-11-30T07:30:58.028Z,99843.28
2017-11-30T07:33:29.518Z,99849.69
2017-11-30T07:35:58.531Z,99844.59
2017-11-30T07:38:30.563Z,99844.21
2017-11-30T07:40:59.670Z,99844.44
2017-11-30T07:43:29.578Z,99847.04
2017-11-30T07:45:57.942Z,99846.15
2017-11-30T07:48:30.184Z,99855.40
2017-11-30T07:50:58.464Z,99843.47
2017-11-30T07:53:31.940Z,99841.55
2017-11-30T07:56:00.239Z,99844.10
2017-11-30T07:58:29.471Z,99847.11
2017-11-30T08:00:57.886Z,99846.75
2017-11-30T08:03:29.533Z,99847.70
2017-11-30T08:05:57.811Z,99852.63
2017-11-30T08:08:30.037Z,99847.86
2017-11-30T08:10:58.307Z,99850.89
2017-11-30T08:13:29.919Z,99850.55
2017-11-30T08:15:58.970Z,99849.58
2017-11-30T08:18:28.752Z,99842.28
2017-11-30T08:20:57.382Z,99844.25
2017-11-30T08:23:29.324Z,99849.30
2017-11-30T08:25:57.837Z,99844.69
2017-11-30T08:28:29.786Z,99854.86
2017-11-30T08:30:58.660Z,99849.45
2017-11-30T08:33:30.705Z,99849.85
2017-11-30T08:35:59.151Z,99849.16
2017-11-30T08:38:30.512Z,99851.93
2017-11-30T08:40:58.978Z,99848.73
2017-11-30T08:43:30.295Z,99848.09
2017-11-30T08:45:58.579Z,99847.56
2017-11-30T08:48:30.064Z,99841.80
2017-11-30T08:50:58.359Z,99847.14
2017-11-30T08:53:30.477Z,99841.41
2017-11-30T08:55:58.797Z,99844.17
2017-11-30T08:58:31.255Z,99845.20
2017-11-30T09:00:59.747Z,99836.41
2017-11-30T09:03:29.545Z,99838.08
2017-11-30T09:05:58.049Z,99836.87
2017-11-30T09:08:29.967Z,99832.23
2017-11-30T09:10:58.283Z,99835.55
2017-11-30T09:13:30.785Z,99833.00
2017-11-30T09:15:59.242Z,99828.75
2017-11-30T09:18:29.432Z,99824.30
2017-11-30T09:20:57.713Z,99822.66
2017-11-30T09:23:28.993Z,99822.86
2017-11-30T09:25:58.028Z,99829.84
2017-11-30T09:28:29.502Z,99830.20
2017-11-30T09:30:58.323Z,99827.67
2017-11-30T09:33:30.459Z,99827.05
2017-11-30T09:35:58.965Z,99826.13
2017-11-30T09:38:30.633Z,99828.91
2017-11-30T09:40:58.918Z,99828.02
2017-11-30T09:43:28.949Z,99825.74
2017-11-30T09:45:57.259Z,99821.30
2017-11-30T09:48:32.390Z,99824.08
2017-11-30T09:51:00.701Z,99821.66
2017-11-30T09:53:29.006Z,99810.94
2017-11-30T09:55:57.275Z,99813.06
2017-11-30T09:58:29.585Z,99809.66
2017-11-30T10:00:57.906Z,99810.16
2017-11-30T10:03:30.691Z,99812.42
2017-11-30T10:05:58.985Z,99811.81
2017-11-30T10:08:30.549Z,99802.14
2017-11-30T10:10:58.943Z,99799.41
2017-11-30T10:13:30.354Z,99797.83
2017-11-30T10:15:58.893Z,99795.13
2017-11-30T10:18:30.322Z,99785.83
2017-11-30T10:20:58.785Z,99779.86
2017-11-30T10:23:28.747Z,99785.47
2017-11-30T10:25:57.347Z,99782.10
2017-11-30T10:28:28.943Z,99781.70
2017-11-30T10:30:57.257Z,99779.73
2017-11-30T10:33:28.935Z,99775.16
2017-11-30T10:35:57.262Z,99777.03
2017-11-30T10:38:32.181Z,99773.56
2017-11-30T10:41:00.612Z,99777.11
2017-11-30T10:43:29.140Z,99770.70
2017-11-30T10:45:57.443Z,99777.08
2017-11-30T10:48:28.999Z,99770.00
2017-11-30T10:50:57.486Z,99768.28
2017-11-30T10:53:28.971Z,99766.27
2017-11-30T10:55:57.250Z,99764.77
2017-11-30T10:58:32.262Z,99762.06
2017-11-30T11:01:00.539Z,99759.99
2017-11-30T11:03:29.013Z,99758.23
2017-11-30T11:05:57.311Z,99755.91
2017-11-30T11:08:29.439Z,99757.27
2017-11-30T11:10:57.746Z,99758.07
2017-11-30T11:13:29.137Z,99755.19
2017-11-30T11:15:57.430Z,99756.16
2017-11-30T11:18:29.418Z,99749.10
2017-11-30T11:20:58.179Z,99752.50
2017-11-30T11:23:30.339Z,99750.69
2017-11-30T11:25:58.825Z,99748.75
2017-11-30T11:28:28.754Z,99742.45
2017-11-30T11:30:57.264Z,99743.27
2017-11-30T11:33:30.167Z,99732.35
2017-11-30T11:35:58.960Z,99737.46
2017-11-30T11:38:30.467Z,99735.58
2017-11-30T11:40:58.748Z,99723.19
2017-11-30T11:43:30.602Z,99728.93
2017-11-30T11:45:58.975Z,99729.00
2017-11-30T11:48:29.712Z,99730.05
2017-11-30T11:50:58.000Z,99727.97
2017-11-30T11:53:29.083Z,99721.50
2017-11-30T11:55:57.361Z,99720.83
2017-11-30T11:58:31.529Z,99718.05
2017-11-30T12:01:00.264Z,99720.69
2017-11-30T12:03:29.079Z,99722.89
2017-11-30T12:05:57.539Z,99712.57
2017-11-30T12:08:29.063Z,99719.87
2017-11-30T12:10:57.552Z,99719.34
2017-11-30T12:13:29.043Z,99720.59
2017-11-30T12:15:57.612Z,99721.75
2017-11-30T12:18:28.907Z,99713.19
2017-11-30T12:20:57.316Z,99718.33
2017-11-30T12:23:30.285Z,99715.17
2017-11-30T12:25:59.055Z,99702.73
2017-11-30T12:28:28.869Z,99704.39
2017-11-30T12:30:57.162Z,99704.84
2017-11-30T12:33:28.599Z,99698.67
2017-11-30T12:35:57.183Z,99700.48
2017-11-30T12:38:32.339Z,99694.84
2017-11-30T12:41:00.610Z,99698.58
2017-11-30T12:43:29.026Z,99697.09
2017-11-30T12:45:57.324Z,99697.97
2017-11-30T12:48:28.674Z,99699.73
2017-11-30T12:50:56.974Z,99689.98
2017-11-30T12:53:28.608Z,99686.55
2017-11-30T12:55:57.455Z,99689.11
2017-11-30T12:58:31.393Z,99681.02
2017-11-30T13:00:59.681Z,99689.75
2017-11-30T13:03:29.449Z,99683.89
2017-11-30T13:05:57.726Z,99686.66
2017-11-30T13:08:29.661Z,99685.47
2017-11-30T13:10:58.118Z,99691.07
2017-11-30T13:13:29.685Z,99690.25
2017-11-30T13:15:58.298Z,99688.28
2017-11-30T13:18:30.125Z,99688.97
2017-11-30T13:20:58.393Z,99688.89
2017-11-30T13:23:30.305Z,99687.53
2017-11-30T13:25:58.761Z,99679.59
2017-11-30T13:28:30.899Z,99684.18
2017-11-30T13:30:59.761Z,99677.81
2017-11-30T13:33:29.344Z,99675.70
2017-11-30T13:35:57.737Z,99675.04
2017-11-30T13:38:28.902Z,99677.42
2017-11-30T13:40:57.197Z,99683.51
2017-11-30T13:43:32.208Z,99679.01
2017-11-30T13:46:00.631Z,99681.82
2017-11-30T13:48:28.901Z,99676.45
2017-11-30T13:50:58.104Z,99682.50
2017-11-30T13:53:29.635Z,99680.74
2017-11-30T13:55:57.910Z,99677.30
2017-11-30T13:58:28.866Z,99678.39
2017-11-30T14:00:57.162Z,99684.38
2017-11-30T14:03:32.147Z,99679.17
2017-11-30T14:06:00.436Z,99685.85
2017-11-30T14:08:29.920Z,99687.54
2017-11-30T14:10:58.841Z,99685.31
2017-11-30T14:13:29.154Z,99690.96
2017-11-30T14:15:57.422Z,99693.70
2017-11-30T14:18:29.524Z,99700.16
2017-11-30T14:20:57.977Z,99697.94
2017-11-30T14:23:29.795Z,99703.19
2017-11-30T14:25:58.124Z,99705.95
2017-11-30T14:28:29.521Z,99705.31
2017-11-30T14:30:57.878Z,99705.92
2017-11-30T14:33:29.541Z,99716.42
2017-11-30T14:35:57.865Z,99727.90
2017-11-30T14:38:29.813Z,99724.79
2017-11-30T14:40:58.154Z,99730.60
2017-11-30T14:43:29.993Z,99734.50
2017-11-30T14:45:58.330Z,99732.77
2017-11-30T14:48:30.704Z,99739.11
2017-11-30T14:50:59.082Z,99730.59
2017-11-30T14:53:28.997Z,99735.81
2017-11-30T14:55:57.599Z,99738.88
2017-11-30T14:58:28.982Z,99745.66
2017-11-30T15:00:57.325Z,99747.85
2017-11-30T15:03:28.914Z,99742.38
2017-11-30T15:05:57.310Z,99740.05
2017-11-30T15:08:32.641Z,99739.51
2017-11-30T15:11:01.126Z,99741.90
2017-11-30T15:13:29.564Z,99741.78
2017-11-30T15:15:57.995Z,99746.18
2017-11-30T15:18:29.596Z,99744.63
2017-11-30T15:20:57.962Z,99750.89
2017-11-30T15:23:28.953Z,99749.77
2017-11-30T15:26:01.477Z,99753.69
2017-11-30T15:28:29.970Z,99754.33
2017-11-30T15:30:58.272Z,99747.09
2017-11-30T15:33:28.924Z,99746.67
2017-11-30T15:35:57.214Z,99751.80
2017-11-30T15:38:32.390Z,99755.24
2017-11-30T15:41:00.809Z,99752.67
2017-11-30T15:43:29.145Z,99753.92
2017-11-30T15:45:57.524Z,99758.63
2017-11-30T15:48:29.694Z,99759.23
2017-11-30T15:50:58.073Z,99766.22
2017-11-30T15:53:29.078Z,99762.70
2017-11-30T15:55:57.595Z,99764.85
2017-11-30T15:58:29.726Z,99765.36
2017-11-30T16:00:58.620Z,99767.28
2017-11-30T16:03:30.517Z,99762.23
2017-11-30T16:05:59.867Z,99760.59
2017-11-30T16:08:30.043Z,99763.64
2017-11-30T16:10:58.463Z,99762.19
2017-11-30T16:13:30.629Z,99757.34
2017-11-30T16:15:58.982Z,99760.31
2017-11-30T16:18:29.084Z,99764.41
2017-11-30T16:20:57.457Z,99764.02
2017-11-30T16:23:29.683Z,99765.25
2017-11-30T16:25:58.011Z,99767.52
2017-11-30T16:28:28.904Z,99764.02
2017-11-30T16:30:57.343Z,99767.81
2017-11-30T16:33:29.139Z,99765.23
2017-11-30T16:35:57.775Z,99771.87
2017-11-30T16:38:30.095Z,99766.57
2017-11-30T16:40:58.679Z,99779.14
2017-11-30T16:43:29.167Z,99777.17
2017-11-30T16:45:57.447Z,99779.25
2017-11-30T16:48:29.095Z,99773.47
2017-11-30T16:50:57.475Z,99776.28
2017-11-30T16:53:28.977Z,99781.05
2017-11-30T16:55:57.412Z,99778.55
2017-11-30T16:58:29.626Z,99778.06
2017-11-30T17:00:58.017Z,99777.34
2017-11-30T17:03:29.006Z,99780.98
2017-11-30T17:05:58.555Z,99779.09
2017-11-30T17:08:30.415Z,99773.94
2017-11-30T17:10:59.311Z,99773.27
2017-11-30T17:13:29.887Z,99774.11
2017-11-30T17:15:58.883Z,99777.69
2017-11-30T17:18:32.295Z,99774.42
2017-11-30T17:21:00.706Z,99777.18
2017-11-30T17:23:29.075Z,99783.59
2017-11-30T17:25:57.428Z,99782.35
2017-11-30T17:28:28.876Z,99786.22
2017-11-30T17:30:57.393Z,99788.16
2017-11-30T17:33:31.347Z,99788.05
2017-11-30T17:35:59.749Z,99792.10
2017-11-30T17:38:29.441Z,99791.89
2017-11-30T17:40:57.823Z,99790.09
2017-11-30T17:43:29.192Z,99790.86
2017-11-30T17:45:57.604Z,99799.64
2017-11-30T17:48:29.121Z,99792.91
2017-11-30T17:50:57.758Z,99791.28
2017-11-30T17:53:28.928Z,99805.70
2017-11-30T17:55:57.281Z,99801.61
2017-11-30T17:58:28.677Z,99795.34
2017-11-30T18:00:57.008Z,99801.50
2017-11-30T18:03:28.545Z,99811.10
2017-11-30T18:05:56.890Z,99809.86
2017-11-30T18:08:32.023Z,99815.88
2017-11-30T18:11:00.366Z,99813.88
2017-11-30T18:13:29.504Z,99817.20
2017-11-30T18:15:58.926Z,99816.83
2017-11-30T18:18:29.465Z,99819.52
2017-11-30T18:20:57.768Z,99811.19
2017-11-30T18:23:29.680Z,99811.69
2017-11-30T18:25:57.962Z,99819.28
2017-11-30T18:28:28.847Z,99815.73
2017-11-30T18:30:57.124Z,99817.73
2017-11-30T18:33:28.647Z,99825.13
2017-11-30T18:35:56.981Z,99815.36
2017-11-30T18:38:31.965Z,99821.34
2017-11-30T18:41:00.249Z,99827.61
2017-11-30T18:43:29.265Z,99824.55
2017-11-30T18:45:57.563Z,99826.56
2017-11-30T18:48:29.597Z,99824.65
2017-11-30T18:50:57.921Z,99830.91
2017-11-30T18:53:29.633Z,99821.96
2017-11-30T18:55:57.943Z,99825.43
2017-11-30T18:58:30.125Z,99827.63
2017-11-30T19:00:58.576Z,99820.99
2017-11-30T19:03:30.104Z,99831.01
2017-11-30T19:05:58.385Z,99825.84
2017-11-30T19:08:30.074Z,99830.12
2017-11-30T19:10:58.385Z,99824.82
2017-11-30T19:13:29.903Z,99835.53
2017-11-30T19:15:58.191Z,99832.52
2017-11-30T19:18:29.786Z,99827.94
2017-11-30T19:20:58.372Z,99833.98
2017-11-30T19:23:28.866Z,99839.03
2017-11-30T19:25:57.167Z,99837.23
2017-11-30T19:28:32.710Z,99833.97
2017-11-30T19:31:01.117Z,99835.89
2017-11-30T19:33:29.456Z,99837.62
2017-11-30T19:35:57.833Z,99839.39
2017-11-30T19:38:29.954Z,99837.15
2017-11-30T19:40:58.251Z,99834.08
2017-11-30T19:43:30.744Z,99835.48
2017-11-30T19:45:59.303Z,99834.16
2017-11-30T19:48:29.412Z,99832.66
2017-11-30T19:50:57.728Z,99842.09
2017-11-30T19:53:29.195Z,99842.01
2017-11-30T19:55:57.820Z,99847.33
2017-11-30T19:58:29.003Z,99852.02
2017-11-30T20:00:57.478Z,99852.06
2017-11-30T20:03:28.905Z,99851.00
2017-11-30T20:05:57.192Z,99854.15
2017-11-30T20:08:28.985Z,99865.89
2017-11-30T20:10:57.432Z,99858.96
2017-11-30T20:13:31.552Z,99863.50
2017-11-30T20:15:59.833Z,99863.50
2017-11-30T20:18:30.434Z,99867.12
2017-11-30T20:20:58.889Z,99868.78
2017-11-30T20:23:29.835Z,99863.63
2017-11-30T20:25:58.130Z,99873.00
2017-11-30T20:28:28.892Z,99873.68
2017-11-30T20:30:57.365Z,99874.36
2017-11-30T20:33:28.746Z,99873.19
2017-11-30T20:35:57.075Z,99869.75
2017-11-30T20:38:28.510Z,99866.34
2017-11-30T20:40:56.813Z,99870.91
2017-11-30T20:43:28.748Z,99872.63
2017-11-30T20:45:57.048Z,99870.57
2017-11-30T20:48:29.365Z,99877.70
2017-11-30T20:50:58.200Z,99885.45
2017-11-30T20:53:30.833Z,99880.48
2017-11-30T20:55:59.141Z,99874.91
2017-11-30T20:58:30.429Z,99887.83
2017-11-30T21:00:58.721Z,99881.52
2017-11-30T21:03:30.153Z,99884.68
2017-11-30T21:05:58.443Z,99886.53
2017-11-30T21:08:29.668Z,99885.03
2017-11-30T21:10:57.985Z,99884.08
2017-11-30T21:13:29.703Z,99883.01
2017-11-30T21:15:58.002Z,99887.72
2017-11-30T21:18:29.725Z,99898.21
2017-11-30T21:20:58.013Z,99895.06
2017-11-30T21:23:30.244Z,99894.74
2017-11-30T21:25:58.519Z,99897.17
2017-11-30T21:28:29.953Z,99892.98
2017-11-30T21:30:58.226Z,99896.36
2017-11-30T21:33:29.853Z,99897.15
2017-11-30T21:35:59.541Z,99899.44
2017-11-30T21:38:32.204Z,99910.27
2017-11-30T21:41:00.621Z,99913.83
2017-11-30T21:43:29.004Z,99915.02
2017-11-30T21:45:57.269Z,99917.04
2017-11-30T21:48:32.417Z,99915.02
2017-11-30T21:51:00.773Z,99922.47
2017-11-30T21:53:29.246Z,99914.16
2017-11-30T21:55:57.632Z,99915.30
2017-11-30T21:58:29.191Z,99921.48
2017-11-30T22:00:57.484Z,99918.61
2017-11-30T22:03:29.085Z,99918.02
2017-11-30T22:05:57.381Z,99926.75
2017-11-30T22:08:30.369Z,99922.13
2017-11-30T22:10:58.673Z,99916.70
2017-11-30T22:13:30.348Z,99915.84
2017-11-30T22:15:58.650Z,99920.11
2017-11-30T22:18:30.241Z,99915.63
2017-11-30T22:20:58.548Z,99923.77
2017-11-30T22:23:30.170Z,99926.02
2017-11-30T22:25:58.896Z,99923.91
2017-11-30T22:28:29.757Z,99932.68
2017-11-30T22:30:58.037Z,99934.31
2017-11-30T22:33:30.674Z,99932.52
2017-11-30T22:35:59.290Z,99932.45
2017-11-30T22:38:29.330Z,99924.32
2017-11-30T22:40:57.889Z,99937.84
2017-11-30T22:43:29.893Z,99937.49
2017-11-30T22:45:58.172Z,99934.08
2017-11-30T22:48:29.690Z,99933.48
2017-11-30T22:50:57.979Z,99940.70
2017-11-30T22:53:29.598Z,99941.52
2017-11-30T22:55:57.902Z,99946.52
2017-11-30T22:58:28.889Z,99948.75
2017-11-30T23:00:57.202Z,99959.31
2017-11-30T23:03:32.440Z,99957.11
2017-11-30T23:06:00.733Z,99961.44
2017-11-30T23:08:29.299Z,99961.14
2017-11-30T23:10:57.654Z,99968.88
2017-11-30T23:13:29.695Z,99969.03
2017-11-30T23:15:58.698Z,99966.09
2017-11-30T23:18:31.001Z,99974.20
2017-11-30T23:20:59.538Z,99977.30
2017-11-30T23:23:28.862Z,99969.08
2017-11-30T23:25:57.138Z,99967.17
2017-11-30T23:28:29.043Z,99968.68
2017-11-30T23:30:57.422Z,99969.74
2017-11-30T23:33:31.382Z,99972.85
2017-11-30T23:36:00.734Z,99978.67
2017-11-30T23:38:29.034Z,99978.93
2017-11-30T23:40:57.305Z,99978.77
2017-11-30T23:43:32.430Z,99980.63
2017-11-30T23:46:00.724Z,99980.54
2017-11-30T23:48:29.103Z,99975.01
2017-11-30T23:50:57.397Z,99976.27
2017-11-30T23:53:29.114Z,99982.34
2017-11-30T23:55:57.674Z,99984.81
2017-11-30T23:58:29.072Z,99988.09
